createdAt,value
2022-10-19T00:00:50.846Z,73.10
2022-10-19T00:02:52.504Z,73.10
2022-10-19T00:04:54.113Z,73.10
2022-10-19T00:06:55.738Z,73.10
2022-10-19T00:09:04.692Z,73.10
2022-10-19T00:11:06.422Z,73.10
2022-10-19T00:13:08.277Z,73.00
2022-10-19T00:15:10.095Z,73.10
2022-10-19T00:17:11.815Z,73.10
2022-10-19T00:19:16.504Z,73.00
2022-10-19T00:21:19.461Z,73.00
2022-10-19T00:23:22.814Z,73.00
2022-10-19T00:25:24.425Z,73.00
2022-10-19T00:27:26.108Z,73.00
2022-10-19T00:29:28.230Z,73.00
2022-10-19T00:31:29.898Z,73.00
2022-10-19T00:33:31.569Z,73.00
2022-10-19T00:35:33.206Z,73.00
2022-10-19T00:37:34.839Z,73.10
2022-10-19T00:39:36.495Z,73.10
2022-10-19T00:41:38.767Z,73.10
2022-10-19T00:43:54.302Z,73.20
2022-10-19T00:45:55.894Z,73.20
2022-10-19T00:47:57.532Z,73.20
2022-10-19T00:49:59.733Z,73.20
2022-10-19T00:52:02.818Z,73.30
2022-10-19T00:54:05.664Z,73.30
2022-10-19T00:56:09.877Z,73.40
2022-10-19T00:58:11.793Z,73.40
2022-10-19T01:00:13.616Z,73.50
2022-10-19T01:02:15.312Z,73.50
2022-10-19T01:04:18.102Z,73.50
2022-10-19T01:06:19.876Z,73.60
2022-10-19T01:08:22.102Z,73.50
2022-10-19T01:10:30.265Z,73.60
2022-10-19T01:12:31.888Z,73.50
2022-10-19T01:14:44.082Z,73.50
2022-10-19T01:16:48.691Z,73.40
2022-10-19T01:18:53.295Z,73.40
2022-10-19T01:21:11.148Z,73.40
2022-10-19T01:23:31.786Z,73.40
2022-10-19T01:25:52.260Z,73.40
2022-10-19T01:27:59.935Z,73.40
2022-10-19T01:30:04.529Z,73.40
2022-10-19T01:32:09.107Z,73.50
2022-10-19T01:34:10.783Z,73.50
2022-10-19T01:36:35.758Z,73.40
2022-10-19T01:38:50.221Z,73.40
2022-10-19T01:41:00.380Z,73.30
2022-10-19T01:43:02.008Z,73.20
2022-10-19T01:45:08.573Z,73.20
2022-10-19T01:47:12.238Z,73.20
2022-10-19T01:49:16.920Z,73.10
2022-10-19T01:51:21.636Z,73.10
2022-10-19T01:53:24.358Z,73.00
2022-10-19T01:55:26.556Z,73.00
2022-10-19T01:57:30.558Z,73.10
2022-10-19T01:59:32.681Z,72.90
2022-10-19T02:01:35.419Z,72.90
2022-10-19T02:03:37.798Z,72.90
2022-10-19T02:05:40.504Z,72.90
2022-10-19T02:07:44.122Z,72.80
2022-10-19T02:09:45.749Z,72.80
2022-10-19T02:11:50.487Z,72.80
2022-10-19T02:13:58.120Z,72.80
2022-10-19T02:16:03.373Z,72.90
2022-10-19T02:18:07.027Z,72.80
2022-10-19T02:20:08.889Z,72.70
2022-10-19T02:22:11.523Z,72.70
2022-10-19T02:24:13.274Z,72.70
2022-10-19T02:26:15.009Z,72.80
2022-10-19T02:28:16.711Z,72.80
2022-10-19T02:30:19.786Z,72.80
2022-10-19T02:32:21.691Z,72.80
2022-10-19T02:34:23.359Z,72.80
2022-10-19T02:36:25.183Z,72.80
2022-10-19T02:38:27.298Z,72.80
2022-10-19T02:40:32.025Z,72.80
2022-10-19T02:42:33.837Z,72.80
2022-10-19T02:44:41.019Z,72.70
2022-10-19T02:46:44.583Z,72.80
2022-10-19T02:48:46.572Z,72.80
2022-10-19T02:50:48.178Z,72.80
2022-10-19T02:52:49.868Z,72.80
2022-10-19T02:54:51.508Z,72.70
2022-10-19T02:56:53.241Z,72.70
2022-10-19T02:58:54.876Z,72.70
2022-10-19T03:00:58.734Z,72.60
2022-10-19T03:03:00.465Z,72.70
2022-10-19T03:05:02.340Z,72.70
2022-10-19T03:07:03.989Z,72.70
2022-10-19T03:09:05.611Z,72.70
2022-10-19T03:11:07.264Z,72.80
2022-10-19T03:13:08.896Z,72.80
2022-10-19T03:15:14.553Z,72.70
2022-10-19T03:17:16.225Z,72.80
2022-10-19T03:19:17.842Z,72.90
2022-10-19T03:21:19.875Z,72.90
2022-10-19T03:23:21.486Z,73.00
2022-10-19T03:25:23.196Z,72.90
2022-10-19T03:27:26.212Z,73.00
2022-10-19T03:29:27.894Z,73.00
2022-10-19T03:31:29.515Z,73.00
2022-10-19T03:33:31.127Z,73.00
2022-10-19T03:35:32.816Z,72.90
2022-10-19T03:37:34.797Z,72.90
2022-10-19T03:39:36.581Z,72.90
2022-10-19T03:41:38.524Z,73.00
2022-10-19T03:43:41.200Z,73.00
2022-10-19T03:45:45.879Z,73.00
2022-10-19T03:47:50.940Z,73.10
2022-10-19T03:49:52.619Z,73.00
2022-10-19T03:51:54.628Z,74.00
2022-10-19T03:53:58.309Z,73.10
2022-10-19T03:56:11.624Z,73.10
2022-10-19T03:58:13.247Z,73.10
2022-10-19T04:00:15.062Z,73.40
2022-10-19T04:02:16.643Z,73.40
2022-10-19T04:04:19.340Z,73.40
2022-10-19T04:06:22.534Z,73.40
2022-10-19T04:08:24.176Z,73.40
2022-10-19T04:10:25.796Z,73.20
2022-10-19T04:12:27.397Z,73.20
2022-10-19T04:14:32.874Z,73.30
2022-10-19T04:16:40.714Z,73.40
2022-10-19T04:18:42.640Z,73.30
2022-10-19T04:20:44.324Z,73.40
2022-10-19T04:22:45.938Z,73.40
2022-10-19T04:24:47.622Z,73.30
2022-10-19T04:26:53.364Z,73.30
2022-10-19T04:28:56.799Z,73.30
2022-10-19T04:31:01.636Z,73.40
2022-10-19T04:33:03.307Z,73.40
2022-10-19T04:35:05.186Z,73.40
2022-10-19T04:37:06.824Z,73.30
2022-10-19T04:39:08.500Z,73.50
2022-10-19T04:41:14.882Z,73.30
2022-10-19T04:43:16.556Z,73.40
2022-10-19T04:45:18.205Z,73.40
2022-10-19T04:47:19.812Z,73.40
2022-10-19T04:49:21.509Z,73.40
2022-10-19T04:51:23.654Z,73.40
2022-10-19T04:53:25.462Z,73.40
2022-10-19T04:55:27.208Z,73.30
2022-10-19T04:57:29.207Z,73.40
2022-10-19T04:59:30.839Z,73.30
2022-10-19T05:01:32.536Z,73.30
2022-10-19T05:03:34.188Z,73.30
2022-10-19T05:05:35.866Z,73.30
2022-10-19T05:07:37.536Z,73.20
2022-10-19T05:09:40.373Z,73.20
2022-10-19T05:11:42.060Z,73.30
2022-10-19T05:13:43.966Z,73.20
2022-10-19T05:15:54.867Z,73.20
2022-10-19T05:17:56.846Z,73.20
2022-10-19T05:19:58.522Z,73.30
2022-10-19T05:22:00.170Z,73.20
2022-10-19T05:24:02.070Z,73.30
2022-10-19T05:26:05.114Z,73.30
2022-10-19T05:28:06.735Z,73.30
2022-10-19T05:30:08.631Z,73.40
2022-10-19T05:32:10.279Z,73.40
2022-10-19T05:34:11.949Z,73.30
2022-10-19T05:36:16.729Z,73.30
2022-10-19T05:38:18.340Z,73.30
2022-10-19T05:40:19.995Z,73.30
2022-10-19T05:42:21.624Z,74.00
2022-10-19T05:44:23.555Z,73.20
2022-10-19T05:46:25.889Z,73.30
2022-10-19T05:48:32.838Z,73.20
2022-10-19T05:50:34.502Z,73.20
2022-10-19T05:52:36.116Z,73.20
2022-10-19T05:54:37.801Z,73.20
2022-10-19T05:56:40.089Z,73.10
2022-10-19T05:58:41.698Z,73.10
2022-10-19T06:00:43.324Z,73.10
2022-10-19T06:02:44.943Z,73.20
2022-10-19T06:04:46.557Z,73.20
2022-10-19T06:06:48.166Z,73.20
2022-10-19T06:08:50.429Z,73.20
2022-10-19T06:10:52.147Z,73.20
2022-10-19T06:12:53.760Z,73.30
2022-10-19T06:14:55.434Z,73.30
2022-10-19T06:16:57.192Z,73.40
2022-10-19T06:18:59.370Z,73.40
2022-10-19T06:21:02.197Z,73.40
2022-10-19T06:23:05.437Z,73.40
2022-10-19T06:25:07.233Z,73.50
2022-10-19T06:27:08.981Z,73.50
2022-10-19T06:29:10.892Z,73.60
2022-10-19T06:31:13.339Z,73.60
2022-10-19T06:33:15.006Z,73.60
2022-10-19T06:35:16.687Z,73.60
2022-10-19T06:37:18.313Z,73.60
2022-10-19T06:39:23.464Z,73.60
2022-10-19T06:41:30.342Z,73.60
2022-10-19T06:43:46.061Z,73.50
2022-10-19T06:45:49.428Z,73.50
2022-10-19T06:47:51.111Z,73.50
2022-10-19T06:49:52.741Z,73.60
2022-10-19T06:51:54.394Z,73.70
2022-10-19T06:53:57.102Z,73.60
2022-10-19T06:55:59.398Z,73.70
2022-10-19T06:58:03.956Z,73.70
2022-10-19T07:00:06.572Z,73.70
2022-10-19T07:02:10.185Z,73.80
2022-10-19T07:04:11.892Z,73.90
2022-10-19T07:06:13.940Z,73.90
2022-10-19T07:08:15.613Z,74.00
2022-10-19T07:10:17.281Z,74.00
2022-10-19T07:12:19.306Z,74.00
2022-10-19T07:14:20.962Z,74.00
2022-10-19T07:16:22.746Z,73.90
2022-10-19T07:18:24.880Z,73.90
2022-10-19T07:20:26.572Z,73.90
2022-10-19T07:22:28.503Z,73.90
2022-10-19T07:24:30.251Z,73.80
2022-10-19T07:26:33.640Z,73.80
2022-10-19T07:28:35.517Z,73.80
2022-10-19T07:30:38.236Z,73.80
2022-10-19T07:32:43.203Z,73.80
2022-10-19T07:34:48.376Z,73.90
2022-10-19T07:36:50.124Z,74.10
2022-10-19T07:38:51.925Z,74.10
2022-10-19T07:40:59.553Z,74.20
2022-10-19T07:43:01.402Z,74.30
2022-10-19T07:45:03.352Z,74.30
2022-10-19T07:47:06.084Z,74.40
2022-10-19T07:49:09.852Z,74.40
2022-10-19T07:51:12.266Z,74.40
2022-10-19T07:53:13.891Z,74.40
2022-10-19T07:55:15.605Z,74.40
2022-10-19T07:57:17.295Z,74.20
2022-10-19T07:59:19.034Z,74.20
2022-10-19T08:01:21.558Z,74.10
2022-10-19T08:05:44.937Z,74.00
2022-10-19T08:07:46.894Z,74.00
2022-10-19T08:09:53.656Z,74.10
2022-10-19T08:11:55.928Z,74.20
2022-10-19T08:13:59.234Z,74.40
2022-10-19T08:16:00.902Z,75.30
2022-10-19T08:18:02.590Z,74.60
2022-10-19T08:20:05.500Z,75.50
2022-10-19T08:22:07.161Z,75.10
2022-10-19T08:24:09.263Z,75.10
2022-10-19T08:26:10.904Z,75.10
2022-10-19T08:28:12.559Z,75.00
2022-10-19T08:30:14.258Z,75.20
2022-10-19T08:32:15.905Z,75.30
2022-10-19T08:34:17.679Z,75.40
2022-10-19T08:36:19.833Z,75.50
2022-10-19T08:38:21.502Z,75.60
2022-10-19T08:40:25.903Z,75.80
2022-10-19T08:42:32.311Z,75.80
2022-10-19T08:44:34.194Z,76.00
2022-10-19T08:46:45.029Z,76.00
2022-10-19T08:48:46.717Z,75.90
2022-10-19T08:50:48.708Z,76.00
2022-10-19T08:53:16.704Z,75.90
2022-10-19T08:55:23.138Z,75.90
2022-10-19T08:57:45.119Z,75.70
2022-10-19T08:59:54.605Z,75.80
2022-10-19T09:01:58.288Z,75.80
2022-10-19T09:04:19.836Z,75.70
2022-10-19T09:06:30.836Z,75.70
2022-10-19T09:08:33.724Z,75.80
2022-10-19T09:10:36.856Z,75.80
2022-10-19T09:12:47.796Z,75.80
2022-10-19T09:14:52.705Z,75.70
2022-10-19T09:16:56.513Z,75.60
2022-10-19T09:18:58.363Z,75.50
2022-10-19T09:21:10.893Z,75.40
2022-10-19T09:23:15.517Z,75.20
2022-10-19T09:25:21.578Z,75.10
2022-10-19T09:27:24.569Z,75.00
2022-10-19T09:29:26.209Z,75.00
2022-10-19T09:31:35.914Z,75.10
2022-10-19T09:33:41.946Z,74.90
2022-10-19T09:35:45.126Z,74.80
2022-10-19T09:37:49.244Z,74.80
2022-10-19T09:39:54.097Z,74.70
2022-10-19T09:41:58.137Z,75.40
2022-10-19T09:43:59.897Z,74.60
2022-10-19T09:46:24.352Z,74.70
2022-10-19T09:48:31.987Z,74.60
2022-10-19T09:50:33.633Z,74.60
2022-10-19T09:52:39.472Z,74.60
2022-10-19T09:54:41.277Z,74.50
2022-10-19T09:56:52.176Z,74.40
2022-10-19T09:58:54.808Z,74.20
2022-10-19T10:00:57.639Z,74.20
2022-10-19T10:02:59.294Z,74.20
2022-10-19T10:05:05.624Z,74.10
2022-10-19T10:07:14.031Z,74.10
2022-10-19T10:09:16.704Z,74.10
2022-10-19T10:11:26.851Z,74.00
2022-10-19T10:13:28.578Z,74.00
2022-10-19T10:15:49.767Z,74.00
2022-10-19T10:17:52.389Z,73.90
2022-10-19T10:19:54.028Z,73.80
2022-10-19T10:21:57.646Z,73.80
2022-10-19T10:24:05.472Z,73.80
2022-10-19T10:26:15.753Z,73.50
2022-10-19T10:28:22.016Z,73.70
2022-10-19T10:30:23.787Z,73.60
2022-10-19T10:32:26.589Z,73.50
2022-10-19T10:34:38.795Z,73.80
2022-10-19T10:36:53.640Z,73.70
2022-10-19T10:39:05.471Z,73.80
2022-10-19T10:41:17.711Z,73.80
2022-10-19T10:43:22.526Z,73.90
2022-10-19T10:45:29.330Z,73.80
2022-10-19T10:47:34.184Z,73.90
2022-10-19T10:49:37.307Z,74.10
2022-10-19T10:51:40.282Z,73.70
2022-10-19T10:53:43.528Z,73.60
2022-10-19T10:55:54.883Z,73.60
2022-10-19T10:58:11.589Z,73.60
2022-10-19T11:00:24.060Z,73.60
2022-10-19T11:02:34.241Z,73.60
2022-10-19T11:04:40.971Z,73.50
2022-10-19T11:06:44.741Z,73.70
2022-10-19T11:08:49.766Z,73.40
2022-10-19T11:10:54.133Z,73.30
2022-10-19T11:13:01.400Z,73.00
2022-10-19T11:15:11.977Z,73.10
2022-10-19T11:17:19.611Z,73.00
2022-10-19T11:19:34.788Z,72.80
2022-10-19T11:21:39.330Z,72.80
2022-10-19T11:23:40.901Z,72.80
2022-10-19T11:26:01.505Z,72.60
2022-10-19T11:28:03.331Z,72.70
2022-10-19T11:30:09.930Z,72.60
2022-10-19T11:32:16.615Z,72.50
2022-10-19T11:34:27.278Z,72.40
2022-10-19T11:36:28.903Z,72.50
2022-10-19T11:38:36.636Z,72.40
2022-10-19T11:40:45.846Z,72.40
2022-10-19T11:43:07.914Z,72.70
2022-10-19T11:45:20.053Z,72.70
2022-10-19T11:47:43.096Z,73.00
2022-10-19T11:49:44.692Z,72.80
2022-10-19T11:51:51.931Z,72.70
2022-10-19T11:54:14.694Z,72.70
2022-10-19T11:56:34.812Z,72.20
2022-10-19T11:58:45.338Z,72.00
2022-10-19T12:00:50.839Z,71.70
2022-10-19T12:02:55.504Z,71.20
2022-10-19T12:05:01.398Z,71.40
2022-10-19T12:07:03.057Z,71.40
2022-10-19T12:09:24.861Z,70.80
2022-10-19T12:11:27.557Z,71.10
2022-10-19T12:13:41.420Z,71.20
2022-10-19T12:15:48.263Z,70.80
2022-10-19T12:17:51.573Z,70.60
2022-10-19T12:19:58.252Z,70.70
2022-10-19T12:22:01.516Z,70.40
2022-10-19T12:24:04.858Z,70.00
2022-10-19T12:26:11.316Z,70.20
2022-10-19T12:28:21.461Z,70.30
2022-10-19T12:30:23.912Z,70.20
2022-10-19T12:32:27.379Z,69.80
2022-10-19T12:34:32.545Z,70.00
2022-10-19T12:36:37.220Z,69.80
2022-10-19T12:38:47.136Z,69.70
2022-10-19T12:41:14.383Z,69.60
2022-10-19T12:43:31.143Z,69.80
2022-10-19T12:45:35.798Z,69.70
2022-10-19T12:47:37.754Z,69.10
2022-10-19T12:49:46.698Z,68.80
2022-10-19T12:51:48.439Z,68.90
2022-10-19T12:53:50.291Z,68.70
2022-10-19T12:56:01.921Z,69.00
2022-10-19T12:58:18.388Z,68.40
2022-10-19T13:00:21.178Z,68.20
2022-10-19T13:02:28.429Z,68.20
2022-10-19T13:04:31.424Z,69.10
2022-10-19T13:06:34.942Z,68.20
2022-10-19T13:08:42.034Z,68.20
2022-10-19T13:11:02.399Z,68.40
2022-10-19T13:13:04.175Z,68.40
2022-10-19T13:15:06.178Z,68.40
2022-10-19T13:17:08.746Z,68.60
2022-10-19T13:19:13.424Z,68.10
2022-10-19T13:21:35.030Z,67.90
2022-10-19T13:23:37.996Z,67.90
2022-10-19T13:25:40.051Z,67.50
2022-10-19T13:27:42.171Z,67.70
2022-10-19T13:29:44.752Z,67.70
2022-10-19T13:31:46.436Z,67.70
2022-10-19T13:33:48.833Z,68.20
2022-10-19T13:35:59.649Z,67.80
2022-10-19T13:38:16.446Z,67.80
2022-10-19T13:40:23.686Z,67.70
2022-10-19T13:42:27.577Z,67.70
2022-10-19T13:44:33.720Z,67.60
2022-10-19T13:46:41.501Z,67.60
2022-10-19T13:49:02.090Z,67.80
2022-10-19T13:51:17.003Z,67.60
2022-10-19T13:53:31.301Z,67.50
2022-10-19T13:55:55.548Z,67.60
2022-10-19T13:57:59.221Z,67.30
2022-10-19T14:00:13.168Z,67.10
2022-10-19T14:02:17.788Z,67.30
2022-10-19T14:04:22.564Z,67.20
2022-10-19T14:06:31.664Z,66.70
2022-10-19T14:08:33.302Z,66.70
2022-10-19T14:10:56.174Z,66.90
2022-10-19T14:12:57.710Z,66.80
2022-10-19T14:15:00.388Z,66.50
2022-10-19T14:17:04.038Z,66.20
2022-10-19T14:19:12.545Z,66.60
2022-10-19T14:21:14.239Z,66.20
2022-10-19T14:23:26.706Z,65.90
2022-10-19T14:25:28.671Z,65.80
2022-10-19T14:27:30.889Z,65.80
2022-10-19T14:29:35.553Z,65.90
2022-10-19T14:31:37.346Z,65.80
2022-10-19T14:33:40.323Z,65.60
2022-10-19T14:35:44.946Z,66.70
2022-10-19T14:37:46.822Z,66.00
2022-10-19T14:40:17.378Z,65.80
2022-10-19T14:42:19.066Z,65.40
2022-10-19T14:44:30.069Z,65.70
2022-10-19T14:46:33.280Z,65.40
2022-10-19T14:48:36.054Z,65.30
2022-10-19T14:50:46.888Z,64.80
2022-10-19T14:52:49.796Z,63.90
2022-10-19T14:54:53.755Z,63.30
2022-10-19T14:56:58.537Z,63.40
2022-10-19T14:59:07.488Z,63.20
2022-10-19T15:01:10.409Z,63.20
2022-10-19T15:03:16.220Z,63.40
2022-10-19T15:05:22.099Z,63.30
2022-10-19T15:07:33.497Z,63.40
2022-10-19T15:09:47.922Z,63.10
2022-10-19T15:11:50.576Z,62.70
2022-10-19T15:14:01.781Z,63.10
2022-10-19T15:16:03.559Z,63.00
2022-10-19T15:18:06.348Z,63.10
2022-10-19T15:20:21.968Z,63.10
2022-10-19T15:22:33.108Z,63.10
2022-10-19T15:24:35.391Z,63.40
2022-10-19T15:26:37.889Z,63.20
2022-10-19T15:28:41.807Z,63.50
2022-10-19T15:30:43.611Z,63.20
2022-10-19T15:32:46.237Z,63.20
2022-10-19T15:34:47.953Z,63.30
2022-10-19T15:36:56.878Z,63.50
2022-10-19T15:39:06.349Z,63.50
2022-10-19T15:41:30.956Z,63.70
2022-10-19T15:43:35.665Z,63.70
2022-10-19T15:45:37.965Z,63.80
2022-10-19T15:47:48.299Z,64.00
2022-10-19T15:49:56.128Z,64.20
2022-10-19T15:51:57.805Z,63.10
2022-10-19T15:54:00.608Z,63.70
2022-10-19T15:58:03.908Z,64.20
2022-10-19T16:00:16.268Z,64.10
2022-10-19T16:02:19.694Z,64.20
2022-10-19T16:04:21.784Z,63.80
2022-10-19T16:06:25.977Z,64.10
2022-10-19T16:08:28.134Z,64.10
2022-10-19T16:10:35.296Z,63.80
2022-10-19T16:12:37.079Z,64.10
2022-10-19T16:14:38.979Z,64.50
2022-10-19T16:16:42.037Z,64.60
2022-10-19T16:18:46.168Z,64.80
2022-10-19T16:20:47.814Z,64.80
2022-10-19T16:22:49.493Z,64.90
2022-10-19T16:24:51.176Z,64.90
2022-10-19T16:26:55.015Z,64.80
2022-10-19T16:28:56.723Z,65.00
2022-10-19T16:30:58.678Z,64.80
2022-10-19T16:33:00.358Z,65.10
2022-10-19T16:35:02.008Z,65.20
2022-10-19T16:37:06.706Z,65.20
2022-10-19T16:39:09.222Z,65.40
2022-10-19T16:41:11.077Z,65.20
2022-10-19T16:43:12.751Z,65.50
2022-10-19T16:45:14.453Z,65.60
2022-10-19T16:47:17.019Z,65.60
2022-10-19T16:49:18.783Z,65.70
2022-10-19T16:51:20.654Z,65.50
2022-10-19T16:53:22.633Z,65.70
2022-10-19T16:55:28.348Z,65.90
2022-10-19T16:57:30.005Z,65.90
2022-10-19T16:59:31.727Z,66.10
2022-10-19T17:01:34.649Z,66.20
2022-10-19T17:03:36.556Z,66.20
2022-10-19T17:05:38.964Z,66.20
2022-10-19T17:07:40.637Z,66.10
2022-10-19T17:09:43.194Z,66.30
2022-10-19T17:11:45.226Z,66.30
2022-10-19T17:13:48.125Z,66.30
2022-10-19T17:15:49.816Z,66.50
2022-10-19T17:17:51.501Z,66.40
2022-10-19T17:19:53.205Z,66.40
2022-10-19T17:22:13.147Z,66.50
2022-10-19T17:24:20.372Z,66.70
2022-10-19T17:26:29.125Z,66.70
2022-10-19T17:28:30.926Z,66.80
2022-10-19T17:30:32.639Z,66.90
2022-10-19T17:32:34.551Z,66.90
2022-10-19T17:34:36.454Z,66.90
2022-10-19T17:38:42.520Z,66.90
2022-10-19T17:40:44.261Z,67.00
2022-10-19T17:42:46.439Z,67.00
2022-10-19T17:44:48.276Z,67.00
2022-10-19T17:46:50.039Z,67.10
2022-10-19T17:48:51.756Z,67.20
2022-10-19T17:51:00.481Z,67.20
2022-10-19T17:53:02.269Z,67.20
2022-10-19T17:55:15.336Z,67.20
2022-10-19T17:57:17.095Z,67.30
2022-10-19T17:59:29.939Z,67.10
2022-10-19T18:01:37.106Z,67.10
2022-10-19T18:03:39.418Z,67.20
2022-10-19T18:05:41.202Z,67.20
2022-10-19T18:07:43.495Z,67.30
2022-10-19T18:09:45.243Z,67.60
2022-10-19T18:11:46.941Z,67.70
2022-10-19T18:13:49.274Z,67.70
2022-10-19T18:15:51.069Z,67.80
2022-10-19T18:17:52.777Z,67.90
2022-10-19T18:19:54.434Z,68.00
2022-10-19T18:21:56.179Z,68.10
2022-10-19T18:23:58.822Z,68.10
2022-10-19T18:26:02.062Z,68.10
2022-10-19T18:28:04.415Z,68.00
2022-10-19T18:30:06.338Z,68.10
2022-10-19T18:32:08.091Z,68.10
2022-10-19T18:34:13.619Z,68.10
2022-10-19T18:36:15.514Z,68.10
2022-10-19T18:38:17.215Z,68.10
2022-10-19T18:40:18.910Z,68.20
2022-10-19T18:42:20.895Z,68.10
2022-10-19T18:44:26.382Z,68.10
2022-10-19T18:46:29.717Z,68.10
2022-10-19T18:48:31.375Z,68.10
2022-10-19T18:50:33.164Z,68.10
2022-10-19T18:52:37.759Z,68.10
2022-10-19T18:54:39.415Z,68.20
2022-10-19T18:56:41.147Z,68.20
2022-10-19T18:58:43.100Z,68.20
2022-10-19T19:00:45.782Z,68.30
2022-10-19T19:02:52.291Z,68.10
2022-10-19T19:04:54.352Z,68.20
2022-10-19T19:06:56.107Z,68.10
2022-10-19T19:08:58.658Z,68.30
2022-10-19T19:11:11.321Z,68.50
2022-10-19T19:13:13.018Z,68.40
2022-10-19T19:15:14.684Z,68.50
2022-10-19T19:17:16.360Z,68.60
2022-10-19T19:19:18.871Z,68.60
2022-10-19T19:21:24.933Z,68.50
2022-10-19T19:23:26.595Z,68.50
2022-10-19T19:25:28.456Z,68.60
2022-10-19T19:27:31.962Z,68.70
2022-10-19T19:29:33.878Z,68.70
2022-10-19T19:31:35.689Z,68.80
2022-10-19T19:33:37.790Z,69.00
2022-10-19T19:35:46.471Z,68.80
2022-10-19T19:37:48.206Z,68.70
2022-10-19T19:39:49.938Z,68.50
2022-10-19T19:41:51.692Z,68.50
2022-10-19T19:43:55.387Z,68.40
2022-10-19T19:45:59.398Z,68.20
2022-10-19T19:48:03.730Z,68.30
2022-10-19T19:50:05.713Z,68.40
2022-10-19T19:52:07.446Z,68.40
2022-10-19T19:54:09.178Z,68.90
2022-10-19T19:56:11.579Z,68.20
2022-10-19T19:58:13.693Z,68.30
2022-10-19T20:00:18.569Z,68.40
2022-10-19T20:02:21.130Z,68.50
2022-10-19T20:04:22.914Z,68.60
2022-10-19T20:06:26.015Z,68.70
2022-10-19T20:08:28.011Z,68.60
2022-10-19T20:10:29.793Z,68.60
2022-10-19T20:12:31.448Z,68.60
2022-10-19T20:14:33.135Z,68.40
2022-10-19T20:16:35.531Z,68.40
2022-10-19T20:18:37.283Z,68.40
2022-10-19T20:20:39.947Z,68.40
2022-10-19T20:22:45.307Z,68.40
2022-10-19T20:24:47.039Z,68.40
2022-10-19T20:26:48.764Z,68.50
2022-10-19T20:28:50.893Z,68.50
2022-10-19T20:30:59.390Z,68.40
2022-10-19T20:33:01.119Z,69.00
2022-10-19T20:35:03.690Z,68.30
2022-10-19T20:37:05.324Z,68.40
2022-10-19T20:39:07.357Z,68.30
2022-10-19T20:41:09.731Z,68.10
2022-10-19T20:43:11.465Z,68.30
2022-10-19T20:45:13.205Z,68.30
2022-10-19T20:47:14.936Z,68.50
2022-10-19T20:49:16.641Z,68.60
2022-10-19T20:51:30.627Z,68.50
2022-10-19T20:53:33.856Z,68.30
2022-10-19T20:55:35.671Z,68.40
2022-10-19T20:57:37.333Z,68.40
2022-10-19T20:59:39.583Z,68.40
2022-10-19T21:01:41.944Z,68.50
2022-10-19T21:03:47.554Z,68.40
2022-10-19T21:05:49.458Z,68.30
2022-10-19T21:07:51.131Z,68.50
2022-10-19T21:09:53.906Z,68.50
2022-10-19T21:11:55.666Z,68.70
2022-10-19T21:13:58.821Z,68.40
2022-10-19T21:16:07.212Z,68.50
2022-10-19T21:18:08.907Z,68.40
2022-10-19T21:20:10.588Z,68.40
2022-10-19T21:22:12.749Z,68.60
2022-10-19T21:24:15.811Z,68.50
2022-10-19T21:26:17.491Z,68.30
2022-10-19T21:28:19.151Z,68.40
2022-10-19T21:30:21.177Z,68.40
2022-10-19T21:32:22.840Z,68.30
2022-10-19T21:34:25.994Z,69.30
2022-10-19T21:36:27.631Z,68.40
2022-10-19T21:38:29.588Z,68.40
2022-10-19T21:40:31.234Z,68.50
2022-10-19T21:42:32.938Z,68.30
2022-10-19T21:44:34.576Z,68.40
2022-10-19T21:46:36.485Z,68.50
2022-10-19T21:48:38.183Z,68.50
2022-10-19T21:50:39.855Z,68.30
2022-10-19T21:52:41.519Z,68.20
2022-10-19T21:54:43.157Z,68.20
2022-10-19T21:56:45.396Z,68.30
2022-10-19T21:58:51.473Z,68.30
2022-10-19T22:00:53.154Z,68.40
2022-10-19T22:02:54.940Z,68.50
2022-10-19T22:04:56.656Z,68.50
2022-10-19T22:06:59.560Z,68.50
2022-10-19T22:09:01.620Z,68.60
2022-10-19T22:11:07.397Z,68.40
2022-10-19T22:13:09.058Z,68.50
2022-10-19T22:15:10.924Z,68.40
2022-10-19T22:17:12.568Z,68.40
2022-10-19T22:19:14.254Z,68.40
2022-10-19T22:21:20.601Z,68.40
2022-10-19T22:23:23.267Z,68.30
2022-10-19T22:25:24.907Z,68.50
2022-10-19T22:27:26.557Z,68.60
2022-10-19T22:29:28.223Z,68.60
2022-10-19T22:31:30.458Z,68.40
2022-10-19T22:33:32.085Z,68.50
2022-10-19T22:35:33.730Z,68.60
2022-10-19T22:37:35.418Z,68.60
2022-10-19T22:39:37.082Z,68.60
2022-10-19T22:41:38.729Z,68.70
2022-10-19T22:43:40.382Z,68.70
2022-10-19T22:45:41.989Z,68.50
2022-10-19T22:47:43.628Z,68.40
2022-10-19T22:49:45.377Z,68.30
2022-10-19T22:51:47.035Z,68.40
2022-10-19T22:53:48.703Z,68.50
2022-10-19T22:55:50.844Z,68.70
2022-10-19T22:57:52.505Z,68.80
2022-10-19T22:59:54.140Z,68.80
2022-10-19T23:01:55.808Z,68.60
2022-10-19T23:03:57.546Z,68.60
2022-10-19T23:05:59.285Z,68.50
2022-10-19T23:08:00.960Z,68.60
2022-10-19T23:10:02.665Z,68.60
2022-10-19T23:12:04.439Z,68.50
2022-10-19T23:14:06.127Z,68.20
2022-10-19T23:16:08.259Z,68.20
2022-10-19T23:18:10.236Z,68.10
2022-10-19T23:20:12.940Z,68.30
2022-10-19T23:22:14.553Z,68.40
2022-10-19T23:24:16.203Z,68.50
2022-10-19T23:26:19.490Z,68.30
2022-10-19T23:28:21.112Z,68.40
2022-10-19T23:30:22.795Z,68.40
2022-10-19T23:32:24.416Z,68.40
2022-10-19T23:34:26.101Z,68.30
2022-10-19T23:36:28.688Z,68.40
2022-10-19T23:38:30.324Z,68.30
2022-10-19T23:40:31.937Z,68.40
2022-10-19T23:42:33.585Z,68.40
2022-10-19T23:44:35.204Z,68.50
2022-10-19T23:46:36.887Z,68.50
2022-10-19T23:48:38.825Z,68.30
2022-10-19T23:50:40.503Z,68.40
2022-10-19T23:52:42.154Z,68.30
2022-10-19T23:54:43.804Z,68.20
2022-10-19T23:56:45.484Z,68.10
2022-10-19T23:58:47.339Z,68.40
